• Join FlightAware (Why Join?)
  • Login
  • US Flag 
Trick or treat! (Boo!!) 
07:00PM EDT


 

Airport Tracker/Info


-or-


 

Live Flight TrackerFlight Track Log ✈ OPT429 ✈ 05-Jul-2014 ✈ KCGF - KTHV

Flight Track Log - Related Links

Times and Time Zones

All times are in EDT time to prevent confusion due to time zone crossing. See the OPT429 flight status page for this flight to view local times or setup timezone preferences in your user account.

Time Position Orientation Groundspeed Altitude Reporting Facility
EDT Latitude Longitude Course Direction KTS MPH feet Rate Location/Type
12:31PM 41.5575 -81.5000 198° South 147 169 1,500  Level Cleveland Center
12:32PM 41.5214 -81.5161 198° South 197 227 3,100 2,460 Climbing Cleveland Center
12:33PM 41.4603 -81.5022 170° South 213 245 6,400 3,000 Climbing Cleveland Center
12:34PM 41.3989 -81.4586 152° Southeast 254 292 9,400 2,640 Climbing Cleveland Center
12:35PM 41.3553 -81.3681 123° Southeast 284 327 11,900 2,340 Climbing Cleveland Center
12:37PM 41.3083 -81.2631 121° Southeast 320 368 14,300 2,520 Climbing Cleveland Center
12:38PM 41.2503 -81.1342 121° Southeast 338 389 17,200 2,340 Climbing Cleveland Center
12:39PM 41.1981 -81.0222 122° Southeast 349 402 19,200 2,040 Climbing Cleveland Center
12:40PM 41.1458 -80.9067 121° Southeast 358 412 21,500 1,980 Climbing Cleveland Center
12:41PM 41.0936 -80.7933 121° Southeast 366 421 23,400 1,740 Climbing Cleveland Center
12:42PM 41.0375 -80.6719 121° Southeast 385 443 25,200 1,500 Climbing Cleveland Center
12:43PM 40.9786 -80.5447 121° Southeast 404 465 26,600 840 Climbing Cleveland Center
12:44PM 40.9022 -80.3789 121° Southeast 440 506 27,000 180 Climbing Cleveland Center
12:45PM 40.8392 -80.2431 122° Southeast 460 529 27,000  Level Cleveland Center
12:46PM 40.8047 -80.0842 106° East 462 532 27,000  Level Cleveland Center
12:47PM 40.7781 -79.9056 101° East 457 526 27,000 -300 Level Cleveland Center
12:48PM 40.7531 -79.7403 101° East 455 524 26,400 -840 Descending Cleveland Center
12:49PM 40.7261 -79.5717 102° East 464 534 25,300 -1,080 Descending Cleveland Center
12:50PM 40.6997 -79.4036 102° East 465 535 24,200 -1,020 Descending Cleveland Center
12:51PM 40.6719 -79.2369 102° East 465 535 23,200 -600 Descending Cleveland Center
12:52PM 40.6417 -79.0456 102° East 451 519 23,000 -120 Descending Cleveland Center
12:53PM 40.6153 -78.8883 102° East 437 503 23,000  Level Cleveland Center
12:54PM 40.5911 -78.7392 102° East 429 494 23,000  Level Cleveland Center
12:55PM 40.5661 -78.5897 102° East 428 493 23,000  Level Cleveland Center
12:56PM 40.5406 -78.4367 102° East 431 496 23,000  Level Cleveland Center
12:57PM 40.5114 -78.2556 102° East 431 496 23,000 -900 Level Cleveland Center
12:58PM 40.4839 -78.1031 103° East 433 498 21,200 -1,800 Descending Cleveland Center
12:59PM 40.4578 -77.9458 102° East 443 510 19,300 -1,680 Descending Cleveland Center
01:00PM 40.4322 -77.7947 102° East 432 497 17,700 -1,920 Descending Cleveland Center
01:01PM 40.4017 -77.6228 103° East 410 472 15,400 -2,100 Descending Cleveland Center
01:02PM 40.3875 -77.5564 106° East 403 464 14,500 -1,980 Descending New York Center
01:03PM 40.3639 -77.4233 103° East 382 440 12,400 -1,980 Descending New York Center
01:03PM 40.3553 -77.3600 100° East 365 420 11,500 -1,800 Descending Cleveland Center
01:04PM 40.3433 -77.3017 105° East 360 414 10,600 -2,100 Descending New York Center
01:05PM 40.2872 -77.2228 133° Southeast 292 336 8,500 -1,920 Descending New York Center
01:06PM 40.2219 -77.1622 145° Southeast 292 336 6,900 -1,620 Descending New York Center
01:07PM 40.1625 -77.1025 142° Southeast 280 322 5,300 -1,500 Descending New York Center
01:08PM 40.1031 -77.0456 144° Southeast 273 314 4,000 -1,140 Descending New York Center
01:09PM 40.0453 -76.9914 144° Southeast 262 302 3,100 -660 Descending New York Center
01:10PM 39.9931 -76.9544 152° Southeast 254 292 2,700 -660 Descending New York Center
01:11PM 39.9325 -76.9192 156° South 223 257 1,900 -420 Descending New York Center
01:12PM 39.8914 -76.9047 165° South 187 215 1,900 -300 Level New York Center
01:13PM 39.8856 -76.8583 99° East 105 121 1,300 -660 Descending New York Center
01:14PM 39.9100 -76.8683 343° North 77 89 600 -720 Descending New York Center
01:16PM 39.9167 -76.8667 339° North  Level FlightAware Approximate